createdAt,value
2019-04-21T00:02:31.995Z,18.98
2019-04-21T00:05:16.474Z,18.97
2019-04-21T00:07:49.024Z,18.94
2019-04-21T00:10:23.505Z,18.91
2019-04-21T00:12:45.918Z,18.88
2019-04-21T00:15:10.002Z,18.84
2019-04-21T00:17:31.618Z,18.79
2019-04-21T00:20:12.716Z,18.76
2019-04-21T00:22:44.027Z,18.70
2019-04-21T00:25:22.728Z,18.65
2019-04-21T00:27:50.097Z,18.59
2019-04-21T00:30:32.852Z,18.53
2019-04-21T00:32:50.311Z,18.47
2019-04-21T00:35:15.502Z,18.42
2019-04-21T00:38:00.882Z,18.38
2019-04-21T00:40:34.557Z,18.33
2019-04-21T00:42:59.986Z,18.30
2019-04-21T00:45:27.503Z,18.24
2019-04-21T00:48:03.869Z,18.21
2019-04-21T00:50:41.978Z,18.17
2019-04-21T00:53:23.060Z,18.14
2019-04-21T00:55:59.169Z,18.10
2019-04-21T00:58:30.089Z,18.06
2019-04-21T01:01:00.451Z,17.98
2019-04-21T01:03:26.740Z,17.98
2019-04-21T01:05:56.080Z,17.93
2019-04-21T01:08:28.249Z,17.91
2019-04-21T01:10:51.622Z,17.86
2019-04-21T01:13:32.104Z,17.85
2019-04-21T01:15:59.559Z,17.77
2019-04-21T01:18:28.426Z,17.73
2019-04-21T01:20:39.438Z,17.69
2019-04-21T01:23:08.597Z,17.66
2019-04-21T01:25:46.066Z,17.62
2019-04-21T01:28:27.165Z,17.59
2019-04-21T01:30:56.842Z,17.55
2019-04-21T01:33:33.582Z,17.53
2019-04-21T01:35:58.050Z,17.52
2019-04-21T01:38:34.193Z,17.49
2019-04-21T01:41:07.070Z,17.43
2019-04-21T01:43:33.852Z,17.37
2019-04-21T01:46:04.663Z,17.32
2019-04-21T01:48:30.667Z,17.27
2019-04-21T01:51:00.585Z,17.24
2019-04-21T01:54:11.190Z,17.21
2019-04-21T01:56:55.718Z,17.18
2019-04-21T01:59:25.694Z,17.12
2019-04-21T02:02:02.353Z,17.02
2019-04-21T02:04:36.568Z,17.00
2019-04-21T02:07:03.185Z,16.99
2019-04-21T02:09:38.373Z,16.98
2019-04-21T02:12:10.565Z,16.96
2019-04-21T02:14:46.086Z,16.93
2019-04-21T02:17:13.207Z,16.89
2019-04-21T02:19:39.042Z,16.87
2019-04-21T02:22:04.868Z,16.82
2019-04-21T02:24:49.907Z,16.78
2019-04-21T02:27:12.996Z,16.75
2019-04-21T02:29:49.020Z,16.72
2019-04-21T02:35:06.525Z,16.62
2019-04-21T02:37:42.534Z,16.58
2019-04-21T02:42:31.536Z,16.51
2019-04-21T02:44:59.833Z,16.50
2019-04-21T02:47:36.723Z,16.46
2019-04-21T02:52:35.426Z,16.41
2019-04-21T02:55:02.693Z,16.36
2019-04-21T02:57:34.729Z,16.32
2019-04-21T03:00:15.981Z,16.27
2019-04-21T03:02:55.122Z,16.22
2019-04-21T03:08:03.470Z,16.12
2019-04-21T03:10:53.240Z,16.06
2019-04-21T03:13:13.948Z,16.02
2019-04-21T03:15:59.144Z,15.99
2019-04-21T03:21:01.235Z,15.92
2019-04-21T03:28:14.093Z,15.82
2019-04-21T03:38:18.987Z,15.72
2019-04-21T03:40:39.977Z,15.68
2019-04-21T03:43:20.700Z,15.66
2019-04-21T03:45:49.613Z,15.64
2019-04-21T03:48:20.814Z,15.60
2019-04-21T03:50:49.169Z,15.58
2019-04-21T04:04:18.040Z,15.45
2019-04-21T04:07:05.651Z,15.35
2019-04-21T04:09:26.154Z,15.33
2019-04-21T04:11:51.076Z,15.30
2019-04-21T04:14:26.800Z,15.27
2019-04-21T04:19:26.384Z,15.23
2019-04-21T04:24:34.346Z,15.19
2019-04-21T04:26:57.008Z,15.17
2019-04-21T04:29:24.520Z,15.16
2019-04-21T04:32:14.618Z,15.16
2019-04-21T04:34:47.333Z,15.15
2019-04-21T04:37:05.437Z,15.12
2019-04-21T04:40:10.864Z,15.12
2019-04-21T04:42:40.742Z,15.10
2019-04-21T04:47:34.883Z,15.08
2019-04-21T04:50:05.313Z,15.08
2019-04-21T04:52:42.388Z,15.07
2019-04-21T04:55:06.837Z,15.07
2019-04-21T04:57:49.051Z,15.09
2019-04-21T05:00:18.186Z,15.10
2019-04-21T05:12:45.515Z,15.19
2019-04-21T05:15:11.538Z,15.19
2019-04-21T05:17:43.275Z,15.16
2019-04-21T05:20:15.798Z,15.18
2019-04-21T05:22:44.253Z,15.18
2019-04-21T05:25:05.516Z,15.16
2019-04-21T05:27:44.829Z,15.12
2019-04-21T05:30:30.699Z,15.12
2019-04-21T05:33:03.641Z,15.12
2019-04-21T05:36:04.791Z,15.18
2019-04-21T05:38:47.751Z,15.35
2019-04-21T05:41:13.098Z,15.60
2019-04-21T05:43:51.448Z,15.86
2019-04-21T05:46:25.229Z,16.09
2019-04-21T05:48:59.283Z,16.28
2019-04-21T05:51:27.155Z,16.46
2019-04-21T05:54:06.961Z,16.66
2019-04-21T05:56:30.586Z,16.87
2019-04-21T05:59:02.314Z,17.07
2019-04-21T06:02:11.410Z,17.24
2019-04-21T06:04:26.207Z,17.40
2019-04-21T06:06:48.059Z,17.48
2019-04-21T06:09:14.569Z,17.61
2019-04-21T06:11:47.879Z,17.80
2019-04-21T06:14:14.192Z,18.06
2019-04-21T06:16:48.233Z,18.52
2019-04-21T06:19:23.622Z,18.94
2019-04-21T06:21:45.277Z,19.45
2019-04-21T06:24:26.981Z,19.93
2019-04-21T06:26:59.252Z,20.40
2019-04-21T06:29:23.763Z,20.32
2019-04-21T06:34:27.775Z,21.34
2019-04-21T06:37:08.177Z,21.76
2019-04-21T06:42:02.545Z,22.45
2019-04-21T06:44:41.583Z,22.75
2019-04-21T06:47:15.586Z,23.01
2019-04-21T06:49:40.129Z,23.27
2019-04-21T06:52:30.552Z,23.66
2019-04-21T06:57:16.901Z,24.59
2019-04-21T06:59:40.562Z,25.03
2019-04-21T07:02:33.355Z,25.43
2019-04-21T07:04:50.231Z,25.75
2019-04-21T07:07:18.921Z,26.19
2019-04-21T07:09:51.182Z,26.65
2019-04-21T07:12:13.901Z,27.13
2019-04-21T07:14:47.883Z,27.46
2019-04-21T07:17:24.701Z,27.81
2019-04-21T07:19:55.369Z,28.30
2019-04-21T07:22:25.588Z,28.68
2019-04-21T07:24:48.209Z,29.04
2019-04-21T07:27:22.281Z,29.34
2019-04-21T07:29:58.593Z,29.68
2019-04-21T07:32:29.878Z,30.19
2019-04-21T07:35:00.126Z,30.67
2019-04-21T07:37:23.887Z,31.07
2019-04-21T07:39:54.840Z,31.31
2019-04-21T07:42:24.369Z,31.50
2019-04-21T07:45:04.584Z,31.74
2019-04-21T07:47:50.780Z,31.88
2019-04-21T07:50:35.018Z,32.00
2019-04-21T07:53:21.156Z,32.30
2019-04-21T07:58:14.975Z,33.30
2019-04-21T08:00:53.012Z,33.60
2019-04-21T08:03:25.039Z,33.99
2019-04-21T08:05:52.684Z,34.35
2019-04-21T08:08:17.915Z,34.73
2019-04-21T08:10:47.656Z,35.28
2019-04-21T08:13:28.963Z,35.73
2019-04-21T08:15:52.953Z,35.78
2019-04-21T08:18:28.350Z,35.86
2019-04-21T08:20:58.585Z,36.28
2019-04-21T08:23:25.410Z,36.82
2019-04-21T08:26:06.486Z,37.20
2019-04-21T08:28:35.088Z,37.67
2019-04-21T08:31:01.314Z,37.93
2019-04-21T08:38:35.849Z,39.01
2019-04-21T08:46:08.156Z,39.55
2019-04-21T08:48:35.167Z,39.61
2019-04-21T08:51:26.149Z,39.42
2019-04-21T08:53:41.135Z,39.71
2019-04-21T08:56:31.904Z,39.88
2019-04-21T08:59:28.462Z,40.04
2019-04-21T09:02:10.847Z,40.43
2019-04-21T09:04:35.231Z,40.58
2019-04-21T09:07:28.816Z,40.66
2019-04-21T09:09:45.722Z,40.62
2019-04-21T09:12:10.587Z,40.61
2019-04-21T09:14:41.472Z,40.76
2019-04-21T09:17:08.049Z,40.26
2019-04-21T09:19:51.045Z,40.29
2019-04-21T09:22:13.207Z,40.58
2019-04-21T09:24:46.985Z,40.71
2019-04-21T09:27:08.522Z,40.78
2019-04-21T09:29:35.443Z,41.00
2019-04-21T09:31:59.579Z,41.55
2019-04-21T09:34:33.181Z,42.02
2019-04-21T09:37:16.523Z,42.03
2019-04-21T09:39:33.215Z,42.40
2019-04-21T09:42:03.270Z,42.95
2019-04-21T09:44:37.169Z,43.55
2019-04-21T09:47:05.094Z,44.18
2019-04-21T09:49:35.613Z,44.18
2019-04-21T09:52:06.676Z,44.24
2019-04-21T09:54:45.833Z,44.01
2019-04-21T09:57:14.479Z,44.15
2019-04-21T09:59:40.669Z,44.54
2019-04-21T10:02:16.120Z,45.14
2019-04-21T10:04:40.063Z,45.87
2019-04-21T10:07:21.910Z,46.45
2019-04-21T10:09:40.136Z,46.82
2019-04-21T10:12:09.818Z,47.21
2019-04-21T10:14:39.095Z,47.73
2019-04-21T10:17:23.946Z,48.23
2019-04-21T10:19:53.202Z,48.40
2019-04-21T10:22:23.204Z,48.43
2019-04-21T10:24:52.506Z,48.63
2019-04-21T10:27:21.553Z,48.86
2019-04-21T10:29:52.185Z,48.95
2019-04-21T10:32:23.243Z,49.39
2019-04-21T10:34:52.861Z,49.56
2019-04-21T10:37:36.298Z,49.83
2019-04-21T10:39:53.822Z,49.97
2019-04-21T10:42:23.692Z,50.05
2019-04-21T10:44:52.845Z,50.29
2019-04-21T10:47:22.785Z,50.62
2019-04-21T10:49:52.844Z,50.79
2019-04-21T10:52:30.907Z,51.03
2019-04-21T10:55:17.199Z,51.32
2019-04-21T10:57:32.563Z,51.74
2019-04-21T11:00:01.762Z,51.15
2019-04-21T11:02:41.121Z,50.87
2019-04-21T11:05:10.264Z,50.62
2019-04-21T11:08:00.924Z,50.59
2019-04-21T11:10:20.430Z,50.61
2019-04-21T11:12:50.774Z,51.13
2019-04-21T11:15:21.088Z,51.02
2019-04-21T11:17:50.635Z,50.83
2019-04-21T11:20:20.183Z,50.83
2019-04-21T11:22:49.509Z,50.68
2019-04-21T11:25:19.782Z,51.20
2019-04-21T11:27:49.160Z,51.76
2019-04-21T11:30:18.235Z,51.98
2019-04-21T11:32:48.263Z,51.88
2019-04-21T11:35:19.213Z,51.54
2019-04-21T11:37:48.431Z,51.34
2019-04-21T11:40:19.802Z,51.03
2019-04-21T11:42:48.315Z,50.44
2019-04-21T11:45:32.867Z,49.96
2019-04-21T11:48:12.430Z,48.63
2019-04-21T11:50:41.629Z,46.69
2019-04-21T11:53:10.802Z,44.58
2019-04-21T11:55:43.602Z,42.87
2019-04-21T11:58:11.880Z,41.36
2019-04-21T12:00:42.160Z,40.08
2019-04-21T12:03:14.860Z,39.23
2019-04-21T12:05:43.399Z,38.50
2019-04-21T12:08:22.982Z,38.01
2019-04-21T12:10:43.317Z,37.27
2019-04-21T12:13:12.408Z,36.65
2019-04-21T12:15:42.975Z,36.09
2019-04-21T12:18:12.172Z,35.41
2019-04-21T12:20:41.256Z,34.93
2019-04-21T12:23:10.310Z,34.64
2019-04-21T12:25:43.079Z,34.06
2019-04-21T12:28:12.226Z,33.83
2019-04-21T12:30:42.035Z,33.53
2019-04-21T12:33:18.448Z,33.23
2019-04-21T12:35:48.194Z,32.91
2019-04-21T12:38:29.321Z,32.71
2019-04-21T12:40:48.576Z,32.45
2019-04-21T12:43:18.791Z,32.42
2019-04-21T12:45:47.932Z,32.47
2019-04-21T12:48:18.043Z,32.37
2019-04-21T12:50:47.934Z,32.33
2019-04-21T12:53:17.886Z,32.28
2019-04-21T12:55:48.489Z,32.23
2019-04-21T12:58:19.369Z,32.14
2019-04-21T13:00:49.604Z,32.16
2019-04-21T13:03:21.651Z,32.10
2019-04-21T13:05:49.765Z,32.00
2019-04-21T13:08:19.772Z,31.77
2019-04-21T13:10:48.890Z,31.65
2019-04-21T13:13:17.917Z,31.53
2019-04-21T13:15:47.348Z,31.54
2019-04-21T13:18:16.546Z,31.46
2019-04-21T13:20:46.412Z,31.39
2019-04-21T13:23:16.790Z,31.39
2019-04-21T13:25:46.003Z,31.49
2019-04-21T13:28:15.010Z,31.54
2019-04-21T13:30:44.409Z,31.55
2019-04-21T13:33:13.735Z,31.64
2019-04-21T13:35:42.798Z,31.63
2019-04-21T13:38:19.869Z,31.64
2019-04-21T13:41:21.464Z,31.69
2019-04-21T13:43:39.257Z,31.70
2019-04-21T13:46:09.883Z,31.73
2019-04-21T13:48:40.343Z,31.79
2019-04-21T13:51:11.085Z,31.81
2019-04-21T13:53:40.224Z,31.83
2019-04-21T13:56:10.661Z,31.85
2019-04-21T13:58:40.140Z,31.86
2019-04-21T14:01:09.682Z,31.92
2019-04-21T14:03:39.700Z,31.58
2019-04-21T14:06:08.809Z,31.87
2019-04-21T14:08:40.174Z,31.82
2019-04-21T14:11:09.295Z,31.73
2019-04-21T14:13:38.608Z,31.66
2019-04-21T14:16:08.102Z,31.66
2019-04-21T14:18:38.635Z,31.63
2019-04-21T14:21:07.634Z,31.62
2019-04-21T14:23:43.312Z,31.55
2019-04-21T14:26:08.685Z,31.40
2019-04-21T14:28:38.911Z,31.25
2019-04-21T14:31:08.278Z,31.02
2019-04-21T14:33:38.245Z,30.94
2019-04-21T14:36:08.608Z,30.90
2019-04-21T14:38:38.603Z,30.87
2019-04-21T14:41:08.260Z,30.89
2019-04-21T14:43:38.517Z,30.91
2019-04-21T14:46:21.644Z,30.85
2019-04-21T14:49:09.079Z,30.82
2019-04-21T14:51:45.394Z,30.66
2019-04-21T14:54:42.635Z,30.48
2019-04-21T14:57:11.804Z,30.39
2019-04-21T14:59:40.842Z,30.37
2019-04-21T15:02:09.913Z,30.37
2019-04-21T15:04:39.774Z,30.23
2019-04-21T15:07:09.669Z,30.20
2019-04-21T15:09:41.047Z,30.12
2019-04-21T15:12:10.064Z,30.03
2019-04-21T15:14:40.246Z,30.03
2019-04-21T15:17:09.405Z,30.02
2019-04-21T15:19:38.554Z,30.02
2019-04-21T15:22:08.230Z,30.04
2019-04-21T15:24:38.310Z,30.04
2019-04-21T15:27:07.481Z,30.00
2019-04-21T15:29:36.671Z,29.98
2019-04-21T15:32:06.358Z,29.99
2019-04-21T15:34:36.083Z,29.99
2019-04-21T15:37:06.163Z,29.99
2019-04-21T15:39:35.320Z,29.99
2019-04-21T15:42:04.388Z,29.93
2019-04-21T15:44:34.645Z,29.83
2019-04-21T15:47:04.072Z,29.79
2019-04-21T15:49:58.845Z,29.80
2019-04-21T15:52:22.257Z,29.65
2019-04-21T15:54:52.463Z,29.65
2019-04-21T15:57:33.786Z,29.61
2019-04-21T16:00:11.294Z,29.59
2019-04-21T16:02:42.506Z,29.52
2019-04-21T16:05:13.052Z,29.44
2019-04-21T16:07:42.390Z,29.35
2019-04-21T16:10:17.382Z,29.30
2019-04-21T16:12:43.663Z,29.17
2019-04-21T16:15:12.779Z,29.10
2019-04-21T16:17:41.829Z,29.02
2019-04-21T16:20:12.216Z,28.99
2019-04-21T16:22:44.514Z,28.98
2019-04-21T16:25:15.026Z,28.95
2019-04-21T16:27:45.415Z,28.94
2019-04-21T16:30:15.603Z,28.90
2019-04-21T16:32:46.012Z,28.84
2019-04-21T16:35:16.914Z,28.77
2019-04-21T16:37:47.598Z,28.66
2019-04-21T16:40:17.186Z,28.62
2019-04-21T16:42:47.924Z,28.62
2019-04-21T16:45:16.976Z,28.55
2019-04-21T16:47:48.904Z,28.54
2019-04-21T16:50:17.104Z,28.49
2019-04-21T16:53:08.301Z,28.43
2019-04-21T16:55:46.899Z,28.36
2019-04-21T16:58:32.627Z,28.28
2019-04-21T17:01:11.020Z,28.19
2019-04-21T17:03:36.821Z,28.09
2019-04-21T17:06:06.998Z,28.04
2019-04-21T17:08:36.872Z,28.01
2019-04-21T17:11:14.013Z,27.93
2019-04-21T17:13:38.296Z,27.90
2019-04-21T17:16:36.456Z,27.82
2019-04-21T17:18:50.864Z,27.77
2019-04-21T17:21:11.142Z,27.64
2019-04-21T17:23:42.151Z,27.67
2019-04-21T17:26:11.179Z,27.53
2019-04-21T17:28:40.715Z,27.57
2019-04-21T17:31:10.868Z,27.55
2019-04-21T17:33:41.390Z,27.53
2019-04-21T17:36:11.315Z,27.45
2019-04-21T17:38:41.821Z,27.40
2019-04-21T17:41:21.518Z,27.32
2019-04-21T17:43:41.952Z,27.26
2019-04-21T17:46:18.074Z,27.19
2019-04-21T17:48:42.981Z,27.12
2019-04-21T17:51:17.678Z,27.06
2019-04-21T17:54:17.552Z,26.98
2019-04-21T17:57:07.442Z,26.92
2019-04-21T17:59:45.139Z,26.86
2019-04-21T18:01:59.426Z,26.76
2019-04-21T18:04:32.192Z,26.70
2019-04-21T18:07:26.106Z,26.59
2019-04-21T18:10:00.923Z,26.51
2019-04-21T18:12:25.026Z,26.42
2019-04-21T18:14:52.949Z,26.33
2019-04-21T18:17:14.217Z,26.28
2019-04-21T18:19:47.342Z,26.24
2019-04-21T18:22:37.663Z,26.15
2019-04-21T18:25:09.895Z,26.06
2019-04-21T18:27:36.634Z,25.93
2019-04-21T18:30:28.387Z,25.86
2019-04-21T18:32:58.638Z,25.79
2019-04-21T18:35:36.513Z,25.72
2019-04-21T18:38:20.722Z,25.64
2019-04-21T18:40:47.437Z,25.58
2019-04-21T18:43:53.145Z,25.49
2019-04-21T18:46:25.891Z,25.41
2019-04-21T18:48:55.227Z,25.35
2019-04-21T18:51:34.711Z,25.27
2019-04-21T18:54:26.951Z,25.19
2019-04-21T18:56:33.819Z,25.11
2019-04-21T18:59:04.371Z,25.05
2019-04-21T19:01:36.520Z,25.00
2019-04-21T19:04:13.468Z,24.94
2019-04-21T19:06:51.433Z,24.86
2019-04-21T19:09:47.587Z,24.79
2019-04-21T19:12:06.046Z,24.72
2019-04-21T19:14:50.991Z,24.63
2019-04-21T19:17:39.583Z,24.53
2019-04-21T19:19:46.473Z,24.46
2019-04-21T19:22:09.057Z,24.36
2019-04-21T19:27:19.150Z,24.21
2019-04-21T19:29:53.955Z,24.13
2019-04-21T19:32:29.035Z,24.04
2019-04-21T19:34:32.563Z,23.97
2019-04-21T19:37:05.801Z,23.88
2019-04-21T19:39:43.419Z,23.81
2019-04-21T19:42:14.463Z,23.72
2019-04-21T19:44:47.229Z,23.65
2019-04-21T19:47:25.676Z,23.55
2019-04-21T19:49:55.157Z,23.48
2019-04-21T19:52:11.524Z,23.41
2019-04-21T19:54:39.780Z,23.33
2019-04-21T19:57:07.022Z,23.26
2019-04-21T19:59:42.655Z,23.17
2019-04-21T20:02:08.858Z,23.09
2019-04-21T20:04:43.879Z,23.02
2019-04-21T20:07:22.873Z,22.97
2019-04-21T20:10:02.112Z,22.91
2019-04-21T20:12:35.581Z,22.83
2019-04-21T20:15:06.388Z,22.75
2019-04-21T20:17:31.068Z,22.68
2019-04-21T20:19:44.542Z,22.62
2019-04-21T20:22:14.723Z,22.55
2019-04-21T20:24:50.035Z,22.49
2019-04-21T20:27:19.795Z,22.42
2019-04-21T20:30:01.996Z,22.36
2019-04-21T20:32:38.271Z,22.30
2019-04-21T20:35:06.749Z,22.25
2019-04-21T20:37:31.736Z,22.18
2019-04-21T20:39:57.791Z,22.11
2019-04-21T20:42:29.359Z,22.06
2019-04-21T20:45:24.961Z,22.00
2019-04-21T20:47:30.932Z,21.96
2019-04-21T20:50:11.405Z,21.91
2019-04-21T20:52:44.782Z,21.85
2019-04-21T20:55:06.826Z,21.80
2019-04-21T20:57:39.911Z,21.72
2019-04-21T21:00:15.422Z,21.67
2019-04-21T21:02:46.957Z,21.62
2019-04-21T21:05:14.189Z,21.56
2019-04-21T21:08:08.631Z,21.50
2019-04-21T21:10:17.511Z,21.46
2019-04-21T21:15:10.078Z,21.36
2019-04-21T21:20:24.865Z,21.24
2019-04-21T21:22:48.289Z,21.19
2019-04-21T21:25:32.183Z,21.14
2019-04-21T21:27:50.234Z,21.08
2019-04-21T21:30:24.615Z,21.03
2019-04-21T21:32:54.662Z,20.97
2019-04-21T21:35:21.423Z,20.92
2019-04-21T21:38:03.599Z,20.85
2019-04-21T21:40:27.118Z,20.82
2019-04-21T21:42:44.283Z,20.78
2019-04-21T21:45:17.860Z,20.73
2019-04-21T21:48:04.528Z,20.68
2019-04-21T21:50:23.927Z,20.64
2019-04-21T21:52:55.105Z,20.58
2019-04-21T21:55:15.999Z,20.52
2019-04-21T21:57:51.789Z,20.48
2019-04-21T22:00:17.508Z,20.43
2019-04-21T22:02:51.308Z,20.38
2019-04-21T22:05:23.896Z,20.31
2019-04-21T22:07:49.042Z,20.25
2019-04-21T22:10:18.327Z,20.22
2019-04-21T22:12:57.115Z,20.19
2019-04-21T22:15:24.347Z,20.15
2019-04-21T22:18:12.091Z,20.10
2019-04-21T22:20:40.118Z,20.07
2019-04-21T22:22:59.414Z,20.04
2019-04-21T22:25:26.640Z,20.00
2019-04-21T22:27:53.655Z,19.96
2019-04-21T22:30:29.934Z,19.89
2019-04-21T22:33:00.727Z,19.84
2019-04-21T22:35:33.494Z,19.80
2019-04-21T22:38:12.356Z,19.76
2019-04-21T22:40:44.069Z,19.73
2019-04-21T22:43:07.124Z,19.69
2019-04-21T22:45:29.313Z,19.65
2019-04-21T22:48:05.346Z,19.61
2019-04-21T22:50:30.821Z,19.56
2019-04-21T22:53:04.732Z,19.51
2019-04-21T22:55:34.732Z,19.49
2019-04-21T22:58:03.499Z,19.46
2019-04-21T23:00:40.052Z,19.40
2019-04-21T23:03:12.960Z,19.35
2019-04-21T23:05:38.229Z,19.42
2019-04-21T23:08:07.204Z,19.45
2019-04-21T23:10:37.148Z,19.46
2019-04-21T23:13:12.219Z,19.47
2019-04-21T23:15:42.360Z,19.48
2019-04-21T23:18:24.467Z,19.50
2019-04-21T23:20:54.050Z,19.50
2019-04-21T23:23:30.234Z,19.52
2019-04-21T23:25:55.653Z,19.53
2019-04-21T23:28:34.563Z,19.53
2019-04-21T23:31:00.436Z,19.53
2019-04-21T23:33:15.846Z,19.52
2019-04-21T23:35:46.080Z,19.52
2019-04-21T23:38:16.025Z,19.49
2019-04-21T23:40:50.523Z,19.51
2019-04-21T23:43:22.317Z,19.51
2019-04-21T23:45:48.214Z,19.48
2019-04-21T23:48:30.025Z,19.45
2019-04-21T23:50:54.734Z,19.42
2019-04-21T23:53:19.719Z,19.42
2019-04-21T23:55:49.498Z,19.39
2019-04-21T23:58:25.074Z,19.37
